Time;durP1;ratioP1;P1;durP2;ratioP2;P2;SDS_P1;SDS_P2;PMS_P1;PMS_P2;Temp;Humidity;BMP_temperature;BMP_pressure;BME280_temperature;BME280_humidity;BME280_pressure;Samples;Min_cycle;Max_cycle;Signal;HPM_P1;HPM_P2
2023/02/27 00:00:13;;;;;;;2.00;1.83;;;1.50;9.80;;;;;;5040305;28;20205;-76
2023/02/27 00:02:43;;;;;;;2.20;2.00;;;1.50;10.10;;;;;;5055923;28;20207;-73
2023/02/27 00:05:11;;;;;;;2.00;1.90;;;1.50;10.50;;;;;;5058320;28;20216;-77
2023/02/27 00:07:40;;;;;;;1.83;1.73;;;1.50;11.20;;;;;;5058750;28;20208;-74
2023/02/27 00:10:12;;;;;;;2.47;2.33;;;1.50;11.30;;;;;;5058845;28;20231;-74
2023/02/27 00:12:40;;;;;;;1.60;1.60;;;1.60;12.00;;;;;;5056289;28;20200;-75
2023/02/27 00:15:11;;;;;;;3.20;2.05;;;1.50;11.70;;;;;;5059309;28;20234;-76
2023/02/27 00:17:39;;;;;;;2.22;2.05;;;1.50;11.70;;;;;;5059598;28;20194;-74
2023/02/27 00:20:10;;;;;;;1.80;1.70;;;1.50;12.50;;;;;;5058016;28;20199;-78
2023/02/27 00:22:39;;;;;;;1.80;1.70;;;1.50;12.30;;;;;;5054200;28;20201;-75
2023/02/27 00:25:08;;;;;;;2.55;2.22;;;1.50;12.00;;;;;;5053398;28;20220;-76
2023/02/27 00:27:37;;;;;;;2.10;2.00;;;1.50;12.80;;;;;;5035097;28;20845;-78
2023/02/27 00:30:07;;;;;;;2.13;2.03;;;1.40;12.90;;;;;;5054390;28;20221;-75
2023/02/27 00:32:36;;;;;;;2.13;2.03;;;1.40;13.60;;;;;;5053056;28;20244;-76
2023/02/27 00:35:04;;;;;;;1.92;1.83;;;1.50;13.80;;;;;;5050837;28;20603;-75
2023/02/27 00:37:33;;;;;;;2.03;1.92;;;1.50;13.60;;;;;;5055546;28;20681;-75
2023/02/27 00:40:04;;;;;;;2.05;1.70;;;1.40;13.70;;;;;;5041267;28;20197;-72
2023/02/27 00:42:32;;;;;;;2.95;1.83;;;1.50;14.70;;;;;;5034609;28;20295;-74
2023/02/27 00:45:02;;;;;;;2.30;2.20;;;1.50;14.20;;;;;;5058128;28;20217;-74
2023/02/27 00:47:31;;;;;;;1.83;1.75;;;1.40;14.40;;;;;;5037314;28;20204;-74
2023/02/27 00:49:59;;;;;;;2.20;2.10;;;1.40;14.90;;;;;;5057905;28;20221;-73
2023/02/27 00:52:28;;;;;;;2.00;1.90;;;1.40;15.00;;;;;;5057119;28;20229;-73
2023/02/27 00:54:56;;;;;;;2.00;1.90;;;1.30;14.00;;;;;;5053072;28;20225;-71
2023/02/27 00:57:24;;;;;;;2.08;1.98;;;1.30;14.50;;;;;;5059515;28;20190;-72
2023/02/27 00:59:52;;;;;;;1.80;1.70;;;1.30;14.20;;;;;;5058511;28;20292;-76
2023/02/27 01:02:21;;;;;;;1.90;1.80;;;1.30;15.50;;;;;;5060816;28;20207;-76
2023/02/27 01:04:50;;;;;;;1.70;1.60;;;1.30;14.80;;;;;;5055367;28;20222;-76
2023/02/27 01:07:18;;;;;;;2.22;2.03;;;1.30;16.60;;;;;;5058680;28;20212;-74
2023/02/27 01:09:46;;;;;;;2.00;1.90;;;1.40;15.90;;;;;;5058659;28;20807;-74
2023/02/27 01:12:14;;;;;;;3.17;2.08;;;1.30;15.90;;;;;;5057172;28;20263;-73
2023/02/27 01:14:43;;;;;;;1.80;1.70;;;1.40;15.80;;;;;;5060279;28;20343;-75
2023/02/27 01:17:11;;;;;;;1.80;1.70;;;1.40;15.90;;;;;;5064051;28;20200;-75
2023/02/27 01:19:41;;;;;;;1.90;1.80;;;1.40;15.20;;;;;;5053821;28;20225;-75
2023/02/27 01:22:09;;;;;;;2.00;1.80;;;1.40;15.80;;;;;;5064899;28;20198;-75
2023/02/27 01:24:37;;;;;;;2.08;1.98;;;1.30;27.00;;;;;;5042287;28;20217;-75
2023/02/27 01:27:05;;;;;;;2.45;1.83;;;1.30;15.80;;;;;;5063980;28;20196;-76
2023/02/27 01:29:33;;;;;;;1.95;1.85;;;1.30;15.90;;;;;;5061787;28;20212;-75
2023/02/27 01:32:01;;;;;;;1.70;1.70;;;1.30;16.20;;;;;;5059013;28;20211;-77
2023/02/27 01:34:30;;;;;;;2.15;1.98;;;1.20;15.40;;;;;;5061139;28;20219;-76
2023/02/27 01:37:02;;;;;;;1.98;1.88;;;1.30;16.20;;;;;;5060967;28;20622;-75
2023/02/27 01:39:31;;;;;;;1.98;1.88;;;1.30;16.60;;;;;;5061244;28;20200;-78
2023/02/27 01:42:00;;;;;;;2.03;1.90;;;1.30;16.10;;;;;;5058951;28;20666;-79
2023/02/27 01:44:30;;;;;;;2.83;2.13;;;1.30;16.30;;;;;;5059139;28;20887;-76
2023/02/27 01:46:58;;;;;;;2.42;1.80;;;1.30;27.60;;;;;;5060058;28;20209;-75
2023/02/27 01:49:31;;;;;;;2.17;1.80;;;1.30;16.70;;;;;;5062313;28;20201;-75
2023/02/27 01:52:09;;;;;;;2.45;2.33;;;1.20;16.10;;;;;;5055471;28;20752;-74
2023/02/27 01:54:39;;;;;;;2.20;2.10;;;1.30;16.70;;;;;;5060250;28;20232;-75
2023/02/27 01:57:08;;;;;;;2.05;1.95;;;1.20;15.90;;;;;;5049966;28;20197;-73
2023/02/27 01:59:40;;;;;;;1.80;1.70;;;1.20;15.30;;;;;;5061226;28;20210;-74
2023/02/27 02:02:14;;;;;;;1.98;1.88;;;1.10;16.10;;;;;;5060220;28;20197;-75
2023/02/27 02:04:45;;;;;;;2.10;2.00;;;1.20;16.40;;;;;;5059069;28;20216;-74
2023/02/27 02:07:18;;;;;;;2.45;2.35;;;1.10;16.20;;;;;;5060308;28;20209;-73
2023/02/27 02:09:49;;;;;;;2.00;1.90;;;1.10;27.50;;;;;;5061356;28;20254;-74
2023/02/27 02:12:20;;;;;;;2.20;2.10;;;1.10;17.30;;;;;;5059909;28;20608;-74
2023/02/27 02:14:48;;;;;;;2.00;1.90;;;1.10;16.70;;;;;;5059400;28;20221;-76
2023/02/27 02:17:23;;;;;;;3.33;2.28;;;1.10;19.10;;;;;;5059880;28;20199;-75
2023/02/27 02:20:27;;;;;;;2.22;2.05;;;1.10;18.40;;;;;;5059368;28;20573;-74
2023/02/27 02:23:38;;;;;;;2.10;2.00;;;1.10;18.60;;;;;;5057110;28;20197;-73
2023/02/27 02:26:31;;;;;;;3.47;3.05;;;1.10;30.10;;;;;;5041272;28;20763;-73
2023/02/27 02:29:37;;;;;;;5.07;2.97;;;1.10;18.40;;;;;;5058200;28;20997;-74
2023/02/27 02:32:35;;;;;;;2.20;2.00;;;1.00;18.60;;;;;;5058429;28;20212;-77
2023/02/27 02:35:39;;;;;;;2.20;1.98;;;1.00;18.40;;;;;;5059967;28;20224;-73
2023/02/27 02:38:46;;;;;;;2.15;2.05;;;1.00;18.90;;;;;;5059377;28;20207;-72
2023/02/27 02:41:22;;;;;;;2.00;1.90;;;1.00;19.30;;;;;;5044610;28;20691;-70
2023/02/27 02:44:01;;;;;;;2.08;1.77;;;1.00;18.00;;;;;;5060400;28;20635;-75
2023/02/27 02:46:36;;;;;;;2.15;2.00;;;0.90;19.20;;;;;;5061989;28;20193;-75
2023/02/27 02:49:17;;;;;;;2.10;2.00;;;1.00;20.20;;;;;;5064420;28;20200;-74
2023/02/27 02:51:53;;;;;;;2.35;2.15;;;1.00;19.80;;;;;;5058497;28;20224;-75
2023/02/27 02:54:30;;;;;;;2.28;2.17;;;1.00;20.10;;;;;;5061175;28;20215;-75
2023/02/27 02:57:05;;;;;;;2.03;1.92;;;0.90;21.10;;;;;;5063859;28;20193;-76
2023/02/27 02:59:38;;;;;;;2.10;2.00;;;1.00;21.10;;;;;;5059385;28;20580;-74
2023/02/27 03:02:10;;;;;;;2.10;2.00;;;1.00;21.50;;;;;;5046891;28;20197;-75
2023/02/27 03:04:41;;;;;;;2.10;2.00;;;1.00;21.70;;;;;;5060092;28;20268;-74
2023/02/27 03:07:15;;;;;;;2.20;2.10;;;1.00;22.80;;;;;;5058479;28;20662;-75
2023/02/27 03:09:48;;;;;;;2.13;1.92;;;1.00;22.10;;;;;;5058943;28;20228;-74
2023/02/27 03:12:27;;;;;;;2.30;2.20;;;0.90;22.60;;;;;;5058822;28;20713;-74
2023/02/27 03:14:59;;;;;;;2.50;2.38;;;1.00;24.20;;;;;;5046991;28;20216;-72
2023/02/27 03:17:35;;;;;;;3.50;2.97;;;0.90;24.10;;;;;;5056763;28;20198;-77
2023/02/27 03:20:08;;;;;;;2.40;2.17;;;0.90;23.80;;;;;;5061301;28;20357;-74
2023/02/27 03:22:38;;;;;;;3.38;2.00;;;1.00;24.50;;;;;;5059895;28;20208;-75
2023/02/27 03:25:10;;;;;;;2.42;2.22;;;1.00;24.30;;;;;;5059783;28;20228;-75
2023/02/27 03:27:43;;;;;;;2.83;2.40;;;1.00;24.90;;;;;;5060332;28;20197;-75
2023/02/27 03:30:15;;;;;;;2.03;1.92;;;1.00;25.50;;;;;;5057935;28;20211;-75
2023/02/27 03:32:48;;;;;;;2.83;2.72;;;1.00;25.60;;;;;;5058973;28;20200;-74
2023/02/27 03:35:16;;;;;;;2.90;2.40;;;1.00;26.70;;;;;;5057893;28;20221;-73
2023/02/27 03:37:56;;;;;;;2.30;2.20;;;1.00;26.20;;;;;;5055444;28;20208;-74
2023/02/27 03:40:30;;;;;;;2.15;2.05;;;0.90;25.80;;;;;;5061239;28;21027;-74
2023/02/27 03:43:09;;;;;;;2.80;2.65;;;0.90;26.40;;;;;;5057137;28;20208;-77
2023/02/27 03:45:42;;;;;;;2.65;2.45;;;0.90;27.40;;;;;;5059503;28;20251;-76
2023/02/27 03:48:10;;;;;;;3.75;2.70;;;0.90;27.50;;;;;;5057739;28;20239;-74
2023/02/27 03:50:38;;;;;;;2.80;2.25;;;0.90;28.10;;;;;;5056962;28;21819;-76
2023/02/27 03:53:14;;;;;;;5.25;4.30;;;1.00;28.80;;;;;;5056848;28;20255;-71
2023/02/27 03:55:47;;;;;;;2.38;2.28;;;1.00;28.30;;;;;;5056728;28;20236;-75
2023/02/27 03:58:15;;;;;;;2.67;2.58;;;1.00;42.30;;;;;;5056196;28;20195;-74
2023/02/27 04:00:43;;;;;;;2.72;2.53;;;1.00;29.50;;;;;;5055901;28;20200;-75
2023/02/27 04:03:12;;;;;;;2.40;2.30;;;1.00;28.80;;;;;;5056335;28;20204;-73
2023/02/27 04:05:40;;;;;;;2.75;2.65;;;1.00;28.50;;;;;;5038577;28;20680;-74
2023/02/27 04:08:24;;;;;;;2.88;2.75;;;0.90;28.80;;;;;;5057839;28;20197;-75
2023/02/27 04:11:22;;;;;;;2.65;2.45;;;0.90;29.00;;;;;;5058601;28;20201;-72
2023/02/27 04:13:59;;;;;;;2.50;2.40;;;0.90;29.80;;;;;;5056447;28;20213;-75
2023/02/27 04:16:50;;;;;;;2.70;2.60;;;0.90;44.40;;;;;;5056743;28;20193;-76
2023/02/27 04:19:36;;;;;;;3.17;2.97;;;0.90;29.90;;;;;;5055829;28;20193;-74
2023/02/27 04:22:21;;;;;;;2.60;2.47;;;1.00;29.90;;;;;;5060334;28;20571;-74
2023/02/27 04:25:00;;;;;;;3.78;2.78;;;0.90;30.50;;;;;;5057930;28;20232;-75
2023/02/27 04:27:38;;;;;;;2.67;2.55;;;0.80;30.30;;;;;;5059343;28;20378;-71
2023/02/27 04:30:18;;;;;;;2.72;2.60;;;0.90;32.70;;;;;;5039936;28;20196;-73
2023/02/27 04:32:53;;;;;;;4.40;3.15;;;0.90;33.20;;;;;;5057771;28;20895;-73
2023/02/27 04:35:30;;;;;;;3.03;2.80;;;0.90;32.60;;;;;;5038771;28;20216;-77
2023/02/27 04:38:02;;;;;;;2.90;2.70;;;0.90;31.70;;;;;;5055063;28;20202;-75
2023/02/27 04:40:36;;;;;;;3.10;2.60;;;1.00;33.60;;;;;;5056746;28;20205;-75
2023/02/27 04:43:09;;;;;;;3.70;3.50;;;0.90;33.10;;;;;;5059349;28;20205;-74
2023/02/27 04:45:41;;;;;;;3.00;2.80;;;0.90;32.80;;;;;;5057323;28;20200;-76
2023/02/27 04:48:16;;;;;;;2.50;2.33;;;0.80;32.60;;;;;;5059432;28;20204;-75
2023/02/27 04:50:50;;;;;;;2.72;2.63;;;0.90;34.60;;;;;;5063802;28;20290;-75
2023/02/27 04:53:22;;;;;;;2.65;2.55;;;0.90;33.80;;;;;;5063942;28;20213;-74
2023/02/27 04:55:55;;;;;;;2.97;2.65;;;0.90;34.20;;;;;;5060042;28;20567;-74
2023/02/27 04:58:29;;;;;;;3.47;3.17;;;0.80;34.60;;;;;;5061810;28;20201;-74
2023/02/27 05:01:02;;;;;;;2.85;2.22;;;0.80;33.90;;;;;;5037455;28;20258;-73
2023/02/27 05:03:34;;;;;;;2.50;2.40;;;0.80;34.50;;;;;;5063051;28;20839;-73
2023/02/27 05:06:03;;;;;;;3.15;2.95;;;0.80;35.50;;;;;;5061858;28;20197;-75
2023/02/27 05:08:38;;;;;;;3.53;2.97;;;0.80;36.00;;;;;;5061871;28;20193;-76
2023/02/27 05:11:11;;;;;;;3.40;3.20;;;0.80;35.50;;;;;;5063181;28;20254;-75
2023/02/27 05:13:45;;;;;;;3.10;2.67;;;0.70;35.40;;;;;;5063528;28;20282;-75
2023/02/27 05:16:19;;;;;;;3.10;2.80;;;0.80;36.90;;;;;;5064856;28;20254;-74
2023/02/27 05:18:48;;;;;;;3.50;3.28;;;0.80;36.40;;;;;;5062083;28;20291;-74
2023/02/27 05:21:24;;;;;;;2.90;2.70;;;0.80;37.20;;;;;;5062794;28;20330;-74
2023/02/27 05:24:03;;;;;;;4.20;2.45;;;0.70;36.30;;;;;;5065279;28;20244;-74
2023/02/27 05:26:58;;;;;;;2.70;2.50;;;0.70;36.80;;;;;;5062592;28;20211;-74
2023/02/27 05:29:36;;;;;;;2.80;2.70;;;0.70;36.30;;;;;;5056258;28;20205;-72
2023/02/27 05:32:14;;;;;;;3.15;2.95;;;0.70;36.20;;;;;;5040978;28;20234;-73
2023/02/27 05:34:49;;;;;;;2.72;2.60;;;0.70;37.10;;;;;;5053895;28;20816;-75
2023/02/27 05:37:23;;;;;;;4.50;4.00;;;0.70;36.60;;;;;;5057677;28;20192;-76
2023/02/27 05:39:52;;;;;;;3.53;3.33;;;0.70;37.10;;;;;;5058581;28;20697;-75
2023/02/27 05:42:25;;;;;;;4.82;3.90;;;0.60;35.90;;;;;;5059564;28;20236;-73
2023/02/27 05:44:59;;;;;;;3.40;3.20;;;0.70;39.00;;;;;;5057220;28;20918;-74
2023/02/27 05:47:32;;;;;;;3.25;2.95;;;0.70;38.70;;;;;;5057988;28;20670;-75
2023/02/27 05:50:05;;;;;;;3.92;3.63;;;0.80;38.80;;;;;;5059528;28;20782;-75
2023/02/27 05:52:35;;;;;;;9.27;7.63;;;0.70;39.00;;;;;;5057380;28;20221;-73
2023/02/27 05:55:07;;;;;;;2.92;2.63;;;0.80;40.30;;;;;;5055038;28;20236;-74
2023/02/27 05:57:40;;;;;;;2.88;2.78;;;0.70;52.90;;;;;;5040703;28;20197;-75
2023/02/27 06:00:15;;;;;;;3.20;3.00;;;0.70;39.90;;;;;;5058974;28;20205;-72
2023/02/27 06:02:44;;;;;;;3.20;3.00;;;0.70;38.90;;;;;;5058807;28;20294;-70
2023/02/27 06:05:15;;;;;;;3.13;2.92;;;0.70;39.60;;;;;;5060048;28;20216;-75
2023/02/27 06:07:43;;;;;;;3.50;3.30;;;0.70;39.00;;;;;;5062443;28;20197;-74
2023/02/27 06:10:14;;;;;;;3.65;3.45;;;0.70;39.90;;;;;;5056429;28;20201;-73
2023/02/27 06:12:43;;;;;;;3.20;3.00;;;0.70;39.50;;;;;;5053862;28;20295;-74
2023/02/27 06:15:13;;;;;;;3.90;3.60;;;0.70;40.30;;;;;;5054738;28;20575;-75
2023/02/27 06:17:41;;;;;;;2.53;2.40;;;0.60;40.60;;;;;;5052893;28;20258;-75
2023/02/27 06:20:11;;;;;;;3.75;3.45;;;0.60;41.40;;;;;;5052579;28;20443;-74
2023/02/27 06:22:39;;;;;;;3.92;3.50;;;0.40;40.60;;;;;;5055031;28;20754;-76
2023/02/27 06:25:08;;;;;;;3.65;3.40;;;0.60;42.70;;;;;;5055289;28;20228;-76
2023/02/27 06:27:36;;;;;;;3.90;3.60;;;0.70;43.30;;;;;;5055483;28;20450;-74
2023/02/27 06:30:06;;;;;;;4.20;3.53;;;0.60;40.70;;;;;;5054902;28;20312;-74
2023/02/27 06:32:35;;;;;;;2.85;2.75;;;0.60;42.20;;;;;;5052171;28;20270;-74
2023/02/27 06:35:04;;;;;;;3.50;3.30;;;0.70;42.30;;;;;;5054079;28;20227;-73
2023/02/27 06:37:33;;;;;;;5.10;4.45;;;0.70;42.00;;;;;;5034701;28;20212;-74
2023/02/27 06:40:01;;;;;;;3.30;3.10;;;0.70;42.70;;;;;;5053007;28;20197;-75
2023/02/27 06:42:29;;;;;;;4.20;3.90;;;0.70;43.30;;;;;;5052249;28;20438;-74
2023/02/27 06:44:57;;;;;;;3.92;3.70;;;0.60;42.20;;;;;;5053604;28;20283;-73
2023/02/27 06:47:25;;;;;;;3.40;3.20;;;0.70;42.90;;;;;;5052666;28;20204;-76
2023/02/27 06:49:55;;;;;;;4.38;4.10;;;0.80;44.00;;;;;;5054760;28;20201;-75
2023/02/27 06:52:23;;;;;;;4.90;4.47;;;0.80;43.50;;;;;;5053007;28;20251;-73
2023/02/27 06:54:51;;;;;;;3.95;3.65;;;0.70;43.30;;;;;;5054457;28;20513;-73
2023/02/27 06:57:19;;;;;;;3.30;3.10;;;0.70;43.40;;;;;;5055994;28;20910;-74
2023/02/27 06:59:48;;;;;;;4.32;3.92;;;0.80;43.90;;;;;;5051051;28;20702;-75
2023/02/27 07:02:17;;;;;;;7.55;4.70;;;0.80;44.10;;;;;;5055119;28;20203;-76
2023/02/27 07:04:45;;;;;;;3.50;3.30;;;0.70;43.10;;;;;;5059334;28;20225;-75
2023/02/27 07:07:14;;;;;;;4.03;3.40;;;0.70;45.00;;;;;;5061470;28;20201;-74
2023/02/27 07:10:02;;;;;;;3.17;2.97;;;0.80;46.20;;;;;;5059309;28;20284;-74
2023/02/27 07:12:31;;;;;;;4.90;3.50;;;0.90;46.40;;;;;;5053410;28;20309;-78
2023/02/27 07:14:59;;;;;;;3.47;3.17;;;1.00;47.00;;;;;;5038869;28;20711;-74
2023/02/27 07:17:27;;;;;;;3.45;3.25;;;1.10;46.80;;;;;;5058952;28;20207;-74
2023/02/27 07:19:55;;;;;;;3.55;3.35;;;1.10;46.30;;;;;;5061465;28;20657;-74
2023/02/27 07:22:25;;;;;;;5.45;3.88;;;1.20;46.30;;;;;;5057613;28;20334;-74
2023/02/27 07:24:53;;;;;;;3.28;3.00;;;1.20;47.30;;;;;;5057532;28;20220;-74
2023/02/27 07:27:21;;;;;;;4.28;3.72;;;1.30;45.70;;;;;;5054582;28;20201;-75
2023/02/27 07:29:50;;;;;;;3.72;3.53;;;1.30;45.50;;;;;;5054397;28;20199;-74
2023/02/27 07:32:18;;;;;;;3.72;3.53;;;1.30;45.60;;;;;;5057160;28;20708;-74
2023/02/27 07:34:46;;;;;;;3.80;3.50;;;1.30;45.30;;;;;;5057443;28;20295;-74
2023/02/27 07:37:15;;;;;;;3.53;3.33;;;1.40;43.70;;;;;;5056075;28;20270;-74
2023/02/27 07:39:44;;;;;;;4.07;3.50;;;1.50;46.00;;;;;;5058756;28;20208;-74
2023/02/27 07:42:12;;;;;;;3.60;3.40;;;1.50;45.80;;;;;;5063041;28;20230;-74
2023/02/27 07:44:41;;;;;;;3.88;3.60;;;1.70;46.80;;;;;;5057134;28;20224;-75
2023/02/27 07:47:10;;;;;;;3.15;2.85;;;1.80;46.50;;;;;;5056121;28;20205;-75
2023/02/27 07:49:38;;;;;;;4.35;3.95;;;1.90;45.80;;;;;;5063637;28;20197;-74
2023/02/27 07:52:07;;;;;;;3.70;3.40;;;2.10;46.10;;;;;;5057120;28;20299;-75
2023/02/27 07:54:36;;;;;;;4.55;3.95;;;2.30;46.40;;;;;;5058283;28;21218;-76
2023/02/27 07:57:06;;;;;;;3.83;3.42;;;2.60;46.30;;;;;;5055114;28;20244;-74
2023/02/27 07:59:34;;;;;;;3.20;3.00;;;2.80;58.60;;;;;;5056294;28;20199;-76
2023/02/27 08:02:03;;;;;;;3.55;3.25;;;3.00;43.00;;;;;;5039681;28;20198;-75
2023/02/27 08:04:31;;;;;;;3.63;3.42;;;3.30;43.20;;;;;;5056999;28;20229;-74
2023/02/27 08:06:59;;;;;;;3.47;3.28;;;3.60;41.90;;;;;;5040436;28;20219;-76
2023/02/27 08:09:28;;;;;;;3.10;2.90;;;3.90;42.40;;;;;;5057302;28;20701;-75
2023/02/27 08:11:56;;;;;;;6.43;3.50;;;4.30;45.40;;;;;;5056033;28;20204;-77
2023/02/27 08:14:25;;;;;;;3.50;3.30;;;4.60;42.10;;;;;;5058006;28;20266;-77
2023/02/27 08:16:53;;;;;;;3.70;3.50;;;4.90;42.50;;;;;;5056542;28;20212;-76
2023/02/27 08:19:21;;;;;;;5.97;3.50;;;5.30;43.10;;;;;;5058717;28;20208;-77
2023/02/27 08:21:49;;;;;;;3.95;3.78;;;5.60;45.90;;;;;;5063572;28;20455;-79
2023/02/27 08:24:17;;;;;;;5.20;3.30;;;5.90;46.10;;;;;;5062011;28;20224;-78
2023/02/27 08:26:46;;;;;;;3.83;3.63;;;6.20;45.70;;;;;;5054600;28;20873;-79
2023/02/27 08:29:14;;;;;;;3.43;3.13;;;6.50;46.00;;;;;;5059941;28;20517;-77
2023/02/27 08:31:45;;;;;;;3.33;3.20;;;6.90;45.20;;;;;;5068356;28;20439;-80
2023/02/27 08:34:14;;;;;;;4.33;4.03;;;7.10;42.50;;;;;;5068274;28;20548;-79
2023/02/27 08:36:42;;;;;;;3.43;3.20;;;7.40;42.70;;;;;;5065034;28;20452;-81
2023/02/27 08:39:11;;;;;;;3.10;2.90;;;7.80;43.10;;;;;;5062005;28;21059;-79
2023/02/27 08:41:39;;;;;;;3.30;3.10;;;8.00;42.80;;;;;;5059565;28;20464;-80
2023/02/27 08:44:07;;;;;;;3.20;3.00;;;8.40;43.80;;;;;;5046065;28;20474;-78
2023/02/27 08:46:36;;;;;;;5.83;3.37;;;8.60;40.40;;;;;;5059476;28;20530;-79
2023/02/27 08:49:05;;;;;;;3.23;3.03;;;8.80;40.30;;;;;;5064097;28;20963;-79
2023/02/27 08:51:33;;;;;;;4.37;2.93;;;9.20;41.60;;;;;;5055073;28;20966;-79
2023/02/27 08:54:02;;;;;;;3.80;3.40;;;9.50;41.20;;;;;;5058045;28;20446;-77
2023/02/27 08:56:32;;;;;;;3.50;3.20;;;9.90;41.80;;;;;;5058302;28;20261;-78
2023/02/27 08:59:00;;;;;;;3.40;3.20;;;10.30;41.10;;;;;;5059160;28;20461;-78
2023/02/27 09:01:33;;;;;;;3.40;3.10;;;10.60;40.70;;;;;;5052851;28;20540;-76
2023/02/27 09:04:02;;;;;;;3.83;3.17;;;10.60;34.30;;;;;;5057506;28;20552;-78
2023/02/27 09:06:33;;;;;;;2.60;2.40;;;10.90;36.80;;;;;;5059639;28;20836;-77
2023/02/27 09:09:02;;;;;;;3.73;3.00;;;11.50;41.20;;;;;;5057821;28;20465;-78
2023/02/27 09:11:30;;;;;;;6.20;2.80;;;12.00;42.70;;;;;;5056138;28;21042;-76
2023/02/27 09:13:59;;;;;;;3.30;3.10;;;12.30;44.10;;;;;;5056061;28;20482;-78
2023/02/27 09:16:27;;;;;;;3.27;3.07;;;12.50;42.80;;;;;;5058315;28;20487;-78
2023/02/27 09:18:56;;;;;;;3.13;2.63;;;12.90;41.60;;;;;;5057010;28;20869;-78
2023/02/27 09:21:24;;;;;;;2.93;2.83;;;13.20;44.60;;;;;;5056265;28;20481;-77
2023/02/27 09:23:54;;;;;;;3.10;2.90;;;13.50;44.40;;;;;;5056467;28;20824;-77
2023/02/27 09:26:22;;;;;;;3.53;3.23;;;14.10;48.20;;;;;;5036145;28;20463;-77
2023/02/27 09:29:09;;;;;;;3.73;3.37;;;14.60;52.90;;;;;;5055772;28;20451;-79
2023/02/27 09:31:37;;;;;;;3.63;3.33;;;15.30;57.50;;;;;;5052376;28;20455;-79
2023/02/27 09:34:05;;;;;;;3.40;3.20;;;15.60;59.20;;;;;;5052348;28;20849;-77
2023/02/27 09:36:34;;;;;;;3.30;3.10;;;15.90;62.00;;;;;;5054301;28;20466;-77
2023/02/27 09:39:03;;;;;;;3.33;3.13;;;16.30;82.70;;;;;;5055212;28;21223;-77
2023/02/27 09:41:42;;;;;;;3.10;2.80;;;16.60;64.40;;;;;;5053952;28;20502;-77
2023/02/27 09:44:21;;;;;;;2.70;2.50;;;16.70;64.50;;;;;;5052900;28;20852;-78
2023/02/27 09:47:13;;;;;;;3.30;3.20;;;16.70;61.50;;;;;;5041825;28;20513;-78
2023/02/27 09:49:51;;;;;;;2.90;2.80;;;17.30;67.00;;;;;;5054744;28;20466;-76
2023/02/27 09:52:19;;;;;;;3.43;3.13;;;17.30;65.70;;;;;;5053905;28;20449;-77
2023/02/27 09:54:49;;;;;;;3.53;3.23;;;17.80;70.50;;;;;;5054449;28;20504;-77
2023/02/27 09:57:27;;;;;;;3.43;3.20;;;17.90;69.90;;;;;;5054384;28;20456;-77
2023/02/27 10:00:00;;;;;;;3.17;2.93;;;18.00;71.70;;;;;;5054318;28;21062;-77
2023/02/27 10:02:37;;;;;;;3.63;3.30;;;18.40;74.50;;;;;;5055812;28;20454;-79
2023/02/27 10:05:14;;;;;;;2.90;2.80;;;18.20;73.40;;;;;;5056116;28;20483;-77
2023/02/27 10:07:50;;;;;;;3.30;3.00;;;17.90;68.60;;;;;;5038647;28;20457;-80
2023/02/27 10:10:29;;;;;;;3.03;2.60;;;17.30;59.00;;;;;;5052423;28;20455;-76
2023/02/27 10:13:17;;;;;;;2.80;2.70;;;17.00;54.50;;;;;;5056527;28;20457;-79
2023/02/27 10:15:48;;;;;;;4.80;3.03;;;16.70;65.60;;;;;;5053665;28;20677;-77
2023/02/27 10:18:19;;;;;;;2.50;2.40;;;16.40;49.40;;;;;;5041716;28;20455;-76
2023/02/27 10:20:58;;;;;;;4.80;3.03;;;16.40;45.30;;;;;;5059726;28;20837;-79
2023/02/27 10:23:33;;;;;;;2.87;2.67;;;17.10;53.90;;;;;;5059754;28;20453;-76
2023/02/27 10:26:04;;;;;;;2.93;2.60;;;17.60;58.20;;;;;;5056442;28;20450;-77
2023/02/27 10:28:34;;;;;;;2.87;2.67;;;18.30;67.30;;;;;;5052343;28;20541;-77
2023/02/27 10:31:02;;;;;;;3.53;2.80;;;18.90;75.70;;;;;;5058028;28;20873;-77
2023/02/27 10:33:35;;;;;;;3.03;2.60;;;18.70;71.00;;;;;;5057117;28;20459;-77
2023/02/27 10:36:10;;;;;;;2.50;2.40;;;19.00;73.30;;;;;;5056499;28;20475;-79
2023/02/27 10:38:51;;;;;;;2.80;2.70;;;19.50;78.60;;;;;;5056511;28;20467;-77
2023/02/27 10:41:22;;;;;;;4.13;3.10;;;20.00;85.90;;;;;;5039622;28;21042;-78
2023/02/27 10:43:56;;;;;;;2.87;2.67;;;21.10;95.10;;;;;;5054539;28;20569;-78
2023/02/27 10:46:27;;;;;;;2.20;2.10;;;21.70;99.90;;;;;;5052082;28;20453;-79
2023/02/27 10:48:58;;;;;;;3.00;2.80;;;21.80;99.90;;;;;;5056801;28;20801;-78
2023/02/27 10:51:30;;;;;;;2.40;2.20;;;22.20;99.90;;;;;;5053862;28;20529;-79
2023/02/27 10:54:22;;;;;;;2.90;2.73;;;22.20;99.90;;;;;;5053741;28;20478;-79
2023/02/27 10:56:54;;;;;;;2.90;2.70;;;23.50;99.90;;;;;;5058328;28;20997;-78
2023/02/27 10:59:25;;;;;;;2.60;2.40;;;22.60;99.90;;;;;;5056048;28;20451;-78
2023/02/27 11:01:56;;;;;;;2.80;2.60;;;21.90;99.90;;;;;;5060535;28;20615;-76
2023/02/27 11:04:28;;;;;;;2.50;2.40;;;21.10;93.50;;;;;;5064661;28;20466;-77
2023/02/27 11:06:56;;;;;;;2.47;2.37;;;21.10;94.00;;;;;;5061152;28;20534;-78
2023/02/27 11:09:26;;;;;;;2.53;2.43;;;21.00;92.60;;;;;;5056622;28;20458;-78
2023/02/27 11:12:11;;;;;;;2.80;2.60;;;20.70;89.90;;;;;;5057784;28;20483;-78
2023/02/27 11:14:49;;;;;;;2.80;2.60;;;22.20;99.70;;;;;;5058007;28;20616;-78
2023/02/27 11:17:24;;;;;;;3.17;2.97;;;23.70;99.90;;;;;;5056979;28;20482;-79
2023/02/27 11:19:52;;;;;;;2.77;2.57;;;23.10;99.90;;;;;;5059170;28;20827;-77
2023/02/27 11:22:23;;;;;;;3.17;2.97;;;24.30;99.90;;;;;;5054168;28;20556;-79
2023/02/27 11:24:52;;;;;;;4.00;3.70;;;24.40;99.90;;;;;;5058533;28;20553;-79
2023/02/27 11:27:25;;;;;;;2.87;2.60;;;21.60;94.30;;;;;;5055765;28;20461;-80
2023/02/27 11:29:58;;;;;;;2.80;2.60;;;18.30;50.20;;;;;;5038624;28;20451;-80
2023/02/27 11:32:35;;;;;;;2.87;2.67;;;20.30;76.00;;;;;;5047214;28;20471;-77
2023/02/27 11:35:04;;;;;;;2.63;2.50;;;20.40;79.40;;;;;;5054941;28;20505;-78
2023/02/27 11:37:35;;;;;;;2.40;2.20;;;19.10;78.20;;;;;;5053541;28;20939;-76
2023/02/27 11:40:14;;;;;;;2.33;2.23;;;16.60;28.90;;;;;;5054158;28;20206;-76
2023/02/27 11:42:48;;;;;;;2.90;2.53;;;14.80;12.20;;;;;;5052638;28;20964;-80
2023/02/27 11:45:29;;;;;;;2.30;2.10;;;13.70;2.90;;;;;;5053563;28;20843;-76
2023/02/27 11:48:21;;;;;;;2.90;2.10;;;13.20;1.00;;;;;;5054409;28;20456;-74
2023/02/27 11:51:11;;;;;;;1.87;1.77;;;12.70;1.00;;;;;;5054581;28;20897;-81
2023/02/27 11:54:06;;;;;;;2.00;1.90;;;12.00;1.00;;;;;;5061201;28;20528;-76
2023/02/27 11:56:38;;;;;;;2.77;2.67;;;11.40;1.00;;;;;;5058304;28;22310;-78
2023/02/27 11:59:17;;;;;;;3.10;2.50;;;10.90;1.00;;;;;;5055792;28;20534;-77
2023/02/27 12:01:52;;;;;;;2.50;2.30;;;10.50;1.00;;;;;;5054459;28;20520;-75
2023/02/27 12:04:26;;;;;;;3.53;2.20;;;10.20;1.00;;;;;;5058236;28;20470;-77
2023/02/27 12:06:59;;;;;;;2.37;2.17;;;9.80;1.00;;;;;;5046146;28;20450;-78
2023/02/27 12:09:38;;;;;;;2.00;1.90;;;10.00;1.00;;;;;;5053067;28;20482;-77
2023/02/27 12:12:17;;;;;;;3.17;2.90;;;10.10;1.00;;;;;;5052517;28;20457;-76
2023/02/27 12:14:52;;;;;;;2.40;2.30;;;9.80;1.00;;;;;;5056322;28;20854;-76
2023/02/27 12:17:25;;;;;;;4.63;2.40;;;9.60;1.00;;;;;;5055825;28;20596;-78
2023/02/27 12:20:14;;;;;;;2.63;2.43;;;9.80;1.00;;;;;;5051460;28;20450;-76
2023/02/27 12:22:45;;;;;;;4.77;2.23;;;9.80;1.00;;;;;;5036723;28;20554;-80
2023/02/27 12:25:22;;;;;;;2.00;1.90;;;9.70;1.00;;;;;;5052172;28;20580;-79
2023/02/27 12:27:56;;;;;;;2.50;2.40;;;9.60;1.00;;;;;;5055821;28;20476;-73
2023/02/27 12:30:27;;;;;;;2.30;2.10;;;9.70;1.00;;;;;;5058404;28;20462;-79
2023/02/27 12:33:03;;;;;;;2.20;2.10;;;9.40;1.00;;;;;;5052278;28;20976;-76
2023/02/27 12:35:32;;;;;;;2.90;2.63;;;9.10;1.00;;;;;;5056230;28;21240;-77
2023/02/27 12:38:02;;;;;;;3.30;2.57;;;9.10;1.00;;;;;;5056603;28;20492;-76
2023/02/27 12:40:38;;;;;;;2.50;1.83;;;8.80;1.00;;;;;;5054961;28;20458;-77
2023/02/27 12:43:29;;;;;;;2.00;1.90;;;8.80;1.00;;;;;;5037750;28;20539;-76
2023/02/27 12:46:23;;;;;;;2.03;1.93;;;9.00;1.00;;;;;;5050090;28;20451;-77
2023/02/27 12:49:06;;;;;;;2.00;1.90;;;8.90;1.00;;;;;;5058729;28;20702;-77
2023/02/27 12:51:46;;;;;;;2.67;2.47;;;8.80;1.00;;;;;;5053720;28;20870;-73
2023/02/27 12:54:42;;;;;;;1.80;1.70;;;8.70;1.00;;;;;;5050159;28;20476;-75
2023/02/27 12:57:44;;;;;;;3.20;2.03;;;8.60;1.00;;;;;;5059354;28;20629;-75
2023/02/27 13:00:17;;;;;;;2.20;2.10;;;8.40;1.00;;;;;;5057983;28;20457;-76
2023/02/27 13:03:04;;;;;;;3.40;1.97;;;8.40;1.00;;;;;;5056851;28;20462;-76
2023/02/27 13:05:43;;;;;;;2.30;2.10;;;8.30;1.00;;;;;;5058909;28;20527;-77
2023/02/27 13:08:32;;;;;;;2.10;2.00;;;7.80;1.00;;;;;;5059996;28;20444;-76
2023/02/27 13:11:10;;;;;;;2.77;2.37;;;7.80;1.00;;;;;;5058339;28;20438;-76
2023/02/27 13:13:41;;;;;;;2.87;2.67;;;8.30;1.00;;;;;;5058725;28;20531;-76
2023/02/27 13:16:17;;;;;;;2.43;2.33;;;8.30;1.00;;;;;;5057466;28;21077;-77
2023/02/27 13:18:54;;;;;;;2.40;2.30;;;7.50;1.00;;;;;;5060011;28;20464;-77
2023/02/27 13:21:30;;;;;;;2.20;2.10;;;7.70;1.00;;;;;;5043697;28;20478;-78
2023/02/27 13:24:22;;;;;;;2.20;2.10;;;7.80;1.00;;;;;;5061735;28;20522;-76
2023/02/27 13:26:57;;;;;;;3.53;2.53;;;8.00;1.00;;;;;;5058834;28;20534;-77